Time;durP1;ratioP1;P1;durP2;ratioP2;P2;SDS_P1;SDS_P2;PMS_P1;PMS_P2;Temp;Humidity;BMP_temperature;BMP_pressure;BME280_temperature;BME280_humidity;BME280_pressure;Samples;Min_cycle;Max_cycle;Signal;HPM_P1;HPM_P2
2023/03/08 00:01:52;;;;;;;;;;;;;;;24.94;18.96;96318.31;5064380;28;20364;-88
2023/03/08 00:04:18;;;;;;;;;;;;;;;23.43;21.56;96325.91;5044590;28;19935;-87
2023/03/08 00:06:44;;;;;;;;;;;;;;;24.39;20.00;96317.16;5061501;28;19924;-88
2023/03/08 00:09:10;;;;;;;;;;;;;;;24.68;19.54;96322.88;5055880;28;19971;-88
2023/03/08 00:11:36;;;;;;;;;;;;;;;23.87;20.10;96346.59;5048749;28;19970;-87
2023/03/08 00:14:02;;;;;;;;;;;;;;;23.19;21.06;96339.78;5049946;28;20031;-87
2023/03/08 00:16:28;;;;;;;;;;;;;;;22.99;20.78;96345.06;5039149;28;19974;-88
2023/03/08 00:18:54;;;;;;;;;;;;;;;23.30;21.17;96342.84;5052700;28;19972;-88
2023/03/08 00:21:20;;;;;;;;;;;;;;;23.64;20.53;96336.84;5051831;28;19920;-88
2023/03/08 00:23:46;;;;;;;;;;;;;;;23.12;21.22;96331.69;5050807;28;20297;-88
2023/03/08 00:26:12;;;;;;;;;;;;;;;22.43;21.74;96337.91;5051091;28;20269;-88
2023/03/08 00:28:39;;;;;;;;;;;;;;;23.02;21.06;96349.75;5049557;28;19925;-87
2023/03/08 00:31:07;;;;;;;;;;;;;;;22.76;21.10;96337.31;5042251;28;20377;-88
2023/03/08 00:33:33;;;;;;;;;;;;;;;23.45;20.73;96340.19;5051747;28;19921;-88
2023/03/08 00:36:16;;;;;;;;;;;;;;;23.27;20.69;96332.59;5049839;28;20018;-87
2023/03/08 00:38:42;;;;;;;;;;;;;;;23.41;21.48;96337.56;5051838;28;19921;-86
2023/03/08 00:41:08;;;;;;;;;;;;;;;24.18;20.27;96335.09;5052004;28;19931;-87
2023/03/08 00:43:34;;;;;;;;;;;;;;;22.75;21.34;96339.38;5056448;28;19951;-87
2023/03/08 00:46:00;;;;;;;;;;;;;;;23.13;20.92;96345.22;5052402;28;19973;-87
2023/03/08 00:48:26;;;;;;;;;;;;;;;22.96;22.18;96338.41;5049663;28;19921;-86
2023/03/08 00:50:53;;;;;;;;;;;;;;;23.14;21.20;96346.78;5050563;28;19943;-87
2023/03/08 00:53:19;;;;;;;;;;;;;;;23.53;21.09;96336.59;5047535;28;20008;-87
2023/03/08 00:55:55;;;;;;;;;;;;;;;22.91;21.86;96353.03;5048172;28;20392;-87
2023/03/08 00:58:22;;;;;;;;;;;;;;;23.65;21.26;96346.81;5049840;28;19928;-87
2023/03/08 01:00:48;;;;;;;;;;;;;;;22.58;22.11;96352.06;5049452;28;19925;-87
2023/03/08 01:03:15;;;;;;;;;;;;;;;21.81;23.93;96356.84;5047933;28;19928;-87
2023/03/08 01:05:42;;;;;;;;;;;;;;;22.20;22.72;96348.91;5054315;28;19921;-87
2023/03/08 01:08:08;;;;;;;;;;;;;;;22.29;22.15;96348.91;5052088;28;19924;-87
2023/03/08 01:10:34;;;;;;;;;;;;;;;22.49;21.87;96355.66;5054609;28;19928;-87
2023/03/08 01:13:01;;;;;;;;;;;;;;;22.88;21.74;96337.16;5051918;28;20296;-86
2023/03/08 01:15:27;;;;;;;;;;;;;;;22.50;22.55;96345.22;5049364;28;19924;-87
2023/03/08 01:17:53;;;;;;;;;;;;;;;22.94;22.05;96348.53;5054937;28;19982;-87
2023/03/08 01:20:19;;;;;;;;;;;;;;;22.74;22.02;96345.41;5052604;28;20384;-87
2023/03/08 01:22:45;;;;;;;;;;;;;;;22.73;22.63;96353.06;5050993;28;20543;-87
2023/03/08 01:25:11;;;;;;;;;;;;;;;22.29;22.14;96357.31;5051464;28;20613;-87
2023/03/08 01:27:37;;;;;;;;;;;;;;;23.20;21.67;96358.09;5054138;28;20044;-87
2023/03/08 01:30:03;;;;;;;;;;;;;;;23.30;21.39;96354.06;5052224;28;19921;-88
2023/03/08 01:32:29;;;;;;;;;;;;;;;23.61;20.74;96356.66;5054272;28;19947;-88
2023/03/08 01:35:00;;;;;;;;;;;;;;;24.21;20.40;96353.75;5052784;28;19928;-87
2023/03/08 01:37:26;;;;;;;;;;;;;;;22.43;22.06;96348.31;5052656;28;20410;-88
2023/03/08 01:39:52;;;;;;;;;;;;;;;23.69;21.28;96341.81;5053862;28;19967;-88
2023/03/08 01:42:18;;;;;;;;;;;;;;;23.98;20.66;96344.81;5050670;28;19929;-89
2023/03/08 01:45:02;;;;;;;;;;;;;;;24.32;20.50;96346.34;5051294;28;19935;-88
2023/03/08 01:47:29;;;;;;;;;;;;;;;24.13;20.72;96346.94;5050485;28;20451;-88
2023/03/08 01:49:58;;;;;;;;;;;;;;;24.12;20.18;96354.56;5052110;28;20368;-87
2023/03/08 01:52:30;;;;;;;;;;;;;;;24.26;20.50;96342.66;5052110;28;20015;-88
2023/03/08 01:55:02;;;;;;;;;;;;;;;23.87;20.63;96352.97;5050935;28;20284;-88
2023/03/08 01:57:37;;;;;;;;;;;;;;;24.17;20.66;96356.72;5050808;28;20339;-88
2023/03/08 02:00:08;;;;;;;;;;;;;;;24.15;20.82;96350.81;5053662;28;19973;-87
2023/03/08 02:02:39;;;;;;;;;;;;;;;23.88;20.36;96353.72;5047041;28;19959;-87
2023/03/08 02:05:05;;;;;;;;;;;;;;;23.59;20.45;96353.53;5049612;28;20617;-88
2023/03/08 02:07:31;;;;;;;;;;;;;;;22.61;21.45;96345.59;5052132;28;19966;-86
2023/03/08 02:09:57;;;;;;;;;;;;;;;23.51;20.87;96355.91;5053051;28;20015;-87
2023/03/08 02:12:24;;;;;;;;;;;;;;;23.23;21.42;96352.38;5051104;28;19924;-87
2023/03/08 02:14:50;;;;;;;;;;;;;;;23.96;20.32;96357.75;5049458;28;20351;-88
2023/03/08 02:17:16;;;;;;;;;;;;;;;23.55;20.86;96364.16;5049333;28;20019;-87
2023/03/08 02:19:42;;;;;;;;;;;;;;;23.06;21.38;96353.94;5041483;28;20372;-88
2023/03/08 02:22:10;;;;;;;;;;;;;;;22.85;21.32;96354.88;5045667;28;19931;-88
2023/03/08 02:24:36;;;;;;;;;;;;;;;23.14;21.32;96351.59;5051498;28;19927;-87
2023/03/08 02:27:05;;;;;;;;;;;;;;;22.80;21.67;96354.75;5047835;28;19921;-88
2023/03/08 02:29:31;;;;;;;;;;;;;;;22.56;21.06;96348.97;5052890;28;20423;-88
2023/03/08 02:31:57;;;;;;;;;;;;;;;23.24;20.97;96345.50;5054527;28;19917;-88
2023/03/08 02:34:23;;;;;;;;;;;;;;;22.26;21.32;96356.25;5053081;28;19927;-88
2023/03/08 02:36:49;;;;;;;;;;;;;;;23.17;20.81;96354.25;5049850;28;20011;-88
2023/03/08 02:39:15;;;;;;;;;;;;;;;23.75;20.19;96353.94;5053746;28;20371;-87
2023/03/08 02:41:41;;;;;;;;;;;;;;;23.69;20.38;96353.03;5041952;28;20435;-89
2023/03/08 02:44:07;;;;;;;;;;;;;;;23.81;19.88;96354.06;5053881;28;19925;-87
2023/03/08 02:46:33;;;;;;;;;;;;;;;24.09;20.03;96351.94;5053729;28;19921;-87
2023/03/08 02:48:59;;;;;;;;;;;;;;;23.94;19.91;96343.44;5052827;28;19924;-87
2023/03/08 02:51:25;;;;;;;;;;;;;;;24.16;19.91;96360.00;5053584;28;19927;-88
2023/03/08 02:53:51;;;;;;;;;;;;;;;24.00;19.80;96356.31;5051946;28;19955;-88
2023/03/08 02:56:17;;;;;;;;;;;;;;;23.41;20.01;96356.41;5052752;28;19925;-88
2023/03/08 02:58:43;;;;;;;;;;;;;;;23.02;20.11;96356.13;5051657;28;19921;-88
2023/03/08 03:01:11;;;;;;;;;;;;;;;23.09;20.63;96344.59;5048682;28;20458;-88
2023/03/08 03:03:38;;;;;;;;;;;;;;;23.47;20.35;96348.91;5050996;28;20403;-88
2023/03/08 03:06:04;;;;;;;;;;;;;;;23.86;19.98;96342.22;5053311;28;20011;-88
2023/03/08 03:08:30;;;;;;;;;;;;;;;23.42;20.73;96341.91;5051668;28;19920;-88
2023/03/08 03:10:56;;;;;;;;;;;;;;;22.67;20.88;96343.72;5051215;28;19946;-88
2023/03/08 03:13:22;;;;;;;;;;;;;;;21.85;21.10;96345.56;5052088;28;19971;-88
2023/03/08 03:15:48;;;;;;;;;;;;;;;22.26;21.25;96352.66;5053047;28;19925;-87
2023/03/08 03:18:14;;;;;;;;;;;;;;;22.99;20.80;96343.06;5049167;28;19925;-88
2023/03/08 03:20:40;;;;;;;;;;;;;;;23.51;20.04;96347.50;5050487;28;19921;-88
2023/03/08 03:23:07;;;;;;;;;;;;;;;24.17;19.61;96347.53;5068312;28;20311;-88
2023/03/08 03:25:35;;;;;;;;;;;;;;;24.56;18.79;96344.31;5042654;28;20273;-88
2023/03/08 03:28:01;;;;;;;;;;;;;;;24.33;18.85;96349.94;5049579;28;19925;-87
2023/03/08 03:30:28;;;;;;;;;;;;;;;24.09;19.02;96358.31;5048314;28;20434;-87
2023/03/08 03:32:54;;;;;;;;;;;;;;;23.63;19.07;96370.94;5051331;28;19921;-87
2023/03/08 03:35:20;;;;;;;;;;;;;;;22.64;19.98;96367.00;5044999;28;19928;-86
2023/03/08 03:37:46;;;;;;;;;;;;;;;22.68;20.17;96368.41;5048680;28;20495;-87
2023/03/08 03:40:13;;;;;;;;;;;;;;;22.42;20.91;96378.31;5047750;28;20300;-87
2023/03/08 03:42:39;;;;;;;;;;;;;;;23.14;19.44;96377.59;5041077;28;19935;-87
2023/03/08 03:45:05;;;;;;;;;;;;;;;23.29;19.64;96384.06;5051904;28;20288;-87
2023/03/08 03:47:31;;;;;;;;;;;;;;;23.72;19.18;96391.31;5051537;28;19917;-87
2023/03/08 03:49:57;;;;;;;;;;;;;;;23.40;19.79;96400.44;5050476;28;19920;-87
2023/03/08 03:52:23;;;;;;;;;;;;;;;23.54;18.60;96404.59;5046821;28;19942;-87
2023/03/08 03:54:49;;;;;;;;;;;;;;;22.96;19.88;96407.59;5053428;28;19924;-87
2023/03/08 03:57:15;;;;;;;;;;;;;;;23.38;19.12;96400.88;5048134;28;19927;-87
2023/03/08 03:59:41;;;;;;;;;;;;;;;23.04;19.41;96417.22;5049550;28;19951;-87
2023/03/08 04:02:07;;;;;;;;;;;;;;;23.07;20.00;96410.72;5049551;28;19939;-87
2023/03/08 04:04:33;;;;;;;;;;;;;;;22.99;19.72;96417.84;5049030;28;20415;-87
2023/03/08 04:06:59;;;;;;;;;;;;;;;22.54;19.13;96416.53;5052678;28;19921;-87
2023/03/08 04:09:25;;;;;;;;;;;;;;;22.34;19.40;96419.00;5048333;28;19952;-86
2023/03/08 04:11:51;;;;;;;;;;;;;;;21.96;21.03;96424.91;5051219;28;19921;-85
2023/03/08 04:14:17;;;;;;;;;;;;;;;21.49;21.08;96435.53;5050094;28;19939;-87
2023/03/08 04:16:44;;;;;;;;;;;;;;;20.87;21.94;96434.56;5046509;28;19971;-86
2023/03/08 04:19:11;;;;;;;;;;;;;;;18.78;25.94;96444.22;5051919;28;19921;-85
2023/03/08 04:21:37;;;;;;;;;;;;;;;18.79;24.53;96451.31;5051307;28;19921;-87
2023/03/08 04:24:04;;;;;;;;;;;;;;;19.08;24.97;96461.25;5050828;28;19921;-86
2023/03/08 04:26:30;;;;;;;;;;;;;;;18.87;25.54;96461.03;5049623;28;19921;-85
2023/03/08 04:28:56;;;;;;;;;;;;;;;19.40;25.83;96465.94;5050534;28;20023;-86
2023/03/08 04:31:27;;;;;;;;;;;;;;;18.76;25.27;96469.69;5048521;28;19921;-85
2023/03/08 04:33:53;;;;;;;;;;;;;;;18.71;25.05;96478.56;5045407;28;19967;-86
2023/03/08 04:36:20;;;;;;;;;;;;;;;19.05;23.51;96483.59;5050244;28;19928;-85
2023/03/08 04:38:46;;;;;;;;;;;;;;;19.04;24.63;96482.03;5051222;28;19952;-86
2023/03/08 04:41:12;;;;;;;;;;;;;;;19.44;24.83;96480.53;5050654;28;19921;-86
2023/03/08 04:43:39;;;;;;;;;;;;;;;20.04;22.41;96486.31;5050005;28;20293;-87
2023/03/08 04:46:06;;;;;;;;;;;;;;;18.51;24.84;96495.31;5051065;28;20011;-86
2023/03/08 04:48:32;;;;;;;;;;;;;;;18.20;24.96;96459.97;5045062;28;19917;-86
2023/03/08 04:50:59;;;;;;;;;;;;;;;17.43;25.66;96504.88;5044712;28;19978;-87
2023/03/08 04:53:26;;;;;;;;;;;;;;;18.70;23.78;96495.66;5051088;28;19921;-87
2023/03/08 04:55:52;;;;;;;;;;;;;;;17.90;24.32;96505.47;5049923;28;20018;-87
2023/03/08 04:58:19;;;;;;;;;;;;;;;20.23;21.90;96505.63;5047653;28;19931;-88
2023/03/08 05:00:45;;;;;;;;;;;;;;;19.74;22.97;96490.41;5046188;28;19927;-86
2023/03/08 05:03:12;;;;;;;;;;;;;;;17.69;25.53;96490.06;5055661;28;19955;-88
2023/03/08 05:05:45;;;;;;;;;;;;;;;19.83;22.50;96504.44;5045564;28;19928;-87
2023/03/08 05:08:12;;;;;;;;;;;;;;;20.33;22.39;96504.50;5041674;28;19925;-86
2023/03/08 05:10:38;;;;;;;;;;;;;;;20.02;22.32;96520.94;5047403;28;19921;-87
2023/03/08 05:13:04;;;;;;;;;;;;;;;19.29;23.05;96513.53;5049814;28;19925;-85
2023/03/08 05:15:30;;;;;;;;;;;;;;;19.11;24.18;96504.09;5049203;28;19921;-87
2023/03/08 05:17:56;;;;;;;;;;;;;;;20.82;21.73;96507.66;5045629;28;20377;-86
2023/03/08 05:20:22;;;;;;;;;;;;;;;19.77;23.66;96518.13;5047220;28;19967;-87
2023/03/08 05:22:49;;;;;;;;;;;;;;;20.80;21.79;96512.13;5051250;28;19920;-89
2023/03/08 05:25:15;;;;;;;;;;;;;;;21.58;20.62;96507.41;5047678;28;19933;-87
2023/03/08 05:27:41;;;;;;;;;;;;;;;20.68;22.80;96502.56;5044480;28;19920;-86
2023/03/08 05:30:07;;;;;;;;;;;;;;;21.07;22.24;96527.16;5046088;28;20661;-86
2023/03/08 05:32:33;;;;;;;;;;;;;;;21.81;21.29;96516.09;5054974;28;19921;-86
2023/03/08 05:34:59;;;;;;;;;;;;;;;19.91;22.65;96517.72;5046532;28;20446;-85
2023/03/08 05:37:25;;;;;;;;;;;;;;;21.13;21.44;96513.41;5047589;28;19924;-86
2023/03/08 05:39:51;;;;;;;;;;;;;;;20.86;21.46;96515.91;5044943;28;19921;-86
2023/03/08 05:42:18;;;;;;;;;;;;;;;22.00;20.93;96522.59;5047155;28;20019;-87
2023/03/08 05:44:45;;;;;;;;;;;;;;;22.92;19.08;96530.13;5044655;28;19927;-87
2023/03/08 05:47:11;;;;;;;;;;;;;;;23.19;19.38;96516.94;5047805;28;21688;-86
2023/03/08 05:49:37;;;;;;;;;;;;;;;23.89;19.80;96527.06;5046209;28;19929;-85
2023/03/08 05:52:03;;;;;;;;;;;;;;;24.08;18.99;96524.25;5043948;28;19931;-85
2023/03/08 05:54:29;;;;;;;;;;;;;;;24.10;18.79;96524.53;5043037;28;20355;-88
2023/03/08 05:56:55;;;;;;;;;;;;;;;24.67;18.99;96529.75;5034472;28;20015;-87
2023/03/08 05:59:22;;;;;;;;;;;;;;;24.25;19.04;96533.84;5053024;28;20410;-86
2023/03/08 06:01:48;;;;;;;;;;;;;;;24.45;18.98;96543.28;5055214;28;19917;-86
2023/03/08 06:04:14;;;;;;;;;;;;;;;24.84;19.38;96538.59;5054797;28;19940;-86
2023/03/08 06:06:40;;;;;;;;;;;;;;;24.87;18.40;96543.28;5051418;28;19929;-87
2023/03/08 06:09:06;;;;;;;;;;;;;;;24.93;18.44;96546.19;5036510;28;19924;-87
2023/03/08 06:11:32;;;;;;;;;;;;;;;24.50;18.84;96548.25;5036375;28;19918;-86
2023/03/08 06:13:58;;;;;;;;;;;;;;;24.45;19.05;96548.13;5035636;28;20527;-86
2023/03/08 06:16:24;;;;;;;;;;;;;;;24.09;19.10;96563.00;5045614;28;19920;-86
2023/03/08 06:18:50;;;;;;;;;;;;;;;24.33;19.49;96561.09;5055298;28;20410;-87
2023/03/08 06:21:18;;;;;;;;;;;;;;;23.69;19.93;96568.00;5054389;28;19921;-86
2023/03/08 06:23:44;;;;;;;;;;;;;;;23.93;19.54;96568.94;5055551;28;20025;-86
2023/03/08 06:26:11;;;;;;;;;;;;;;;24.43;19.34;96559.81;5053696;28;20315;-86
2023/03/08 06:28:39;;;;;;;;;;;;;;;24.81;18.70;96547.22;5056019;28;19916;-86
2023/03/08 06:31:05;;;;;;;;;;;;;;;25.03;18.51;96545.66;5055693;28;19917;-86
2023/03/08 06:33:31;;;;;;;;;;;;;;;24.15;18.75;96555.53;5055100;28;19947;-86
2023/03/08 06:36:02;;;;;;;;;;;;;;;23.53;20.50;96549.50;5055582;28;19924;-86
2023/03/08 06:38:29;;;;;;;;;;;;;;;23.62;20.58;96566.31;5054749;28;19929;-86
2023/03/08 06:40:55;;;;;;;;;;;;;;;23.03;20.51;96580.84;5054374;28;20337;-86
2023/03/08 06:43:22;;;;;;;;;;;;;;;22.32;20.80;96583.66;5068398;28;19967;-86
2023/03/08 06:45:48;;;;;;;;;;;;;;;22.83;20.76;96594.44;5072904;28;19959;-86
2023/03/08 06:48:14;;;;;;;;;;;;;;;22.75;20.92;96590.41;5049979;28;19964;-86
2023/03/08 06:50:40;;;;;;;;;;;;;;;22.23;21.06;96596.78;5055173;28;19978;-86
2023/03/08 06:53:06;;;;;;;;;;;;;;;23.46;21.13;96600.22;5055457;28;19979;-86
2023/03/08 06:55:36;;;;;;;;;;;;;;;24.08;20.82;96605.56;5054526;28;19921;-86
2023/03/08 06:58:02;;;;;;;;;;;;;;;23.85;20.15;96604.16;5055222;28;19924;-86
2023/03/08 07:00:28;;;;;;;;;;;;;;;24.00;19.65;96611.44;5055259;28;19944;-86
2023/03/08 07:02:54;;;;;;;;;;;;;;;24.00;19.07;96600.22;5054029;28;19925;-86
2023/03/08 07:05:20;;;;;;;;;;;;;;;24.42;20.57;96602.34;5051447;28;19940;-85
2023/03/08 07:07:47;;;;;;;;;;;;;;;24.14;19.05;96610.06;5037316;28;19935;-86
2023/03/08 07:10:14;;;;;;;;;;;;;;;23.36;21.68;96601.47;5053044;28;19921;-86
2023/03/08 07:12:42;;;;;;;;;;;;;;;23.40;20.62;96609.72;5055053;28;20377;-85
2023/03/08 07:15:09;;;;;;;;;;;;;;;23.68;20.21;96616.91;5055138;28;20374;-86
2023/03/08 07:17:35;;;;;;;;;;;;;;;23.58;20.22;96627.31;5054447;28;20014;-86
2023/03/08 07:20:05;;;;;;;;;;;;;;;24.32;19.41;96631.69;5055149;28;19917;-86
2023/03/08 07:22:31;;;;;;;;;;;;;;;24.01;19.94;96631.84;5054611;28;19968;-86
2023/03/08 07:24:57;;;;;;;;;;;;;;;24.29;20.02;96641.03;5039636;28;19943;-87
2023/03/08 07:27:23;;;;;;;;;;;;;;;23.24;20.34;96641.56;5054648;28;20444;-86
2023/03/08 07:29:50;;;;;;;;;;;;;;;23.14;20.85;96642.78;5054621;28;19962;-86
2023/03/08 07:32:16;;;;;;;;;;;;;;;24.01;20.13;96640.28;5054306;28;20012;-86
2023/03/08 07:34:43;;;;;;;;;;;;;;;24.38;20.16;96647.41;5054519;28;19924;-86
2023/03/08 07:37:13;;;;;;;;;;;;;;;25.17;19.70;96645.28;5054459;28;19920;-86
2023/03/08 07:39:39;;;;;;;;;;;;;;;25.43;18.79;96640.78;5053531;28;19925;-86
2023/03/08 07:42:05;;;;;;;;;;;;;;;25.55;19.29;96648.25;5055982;28;19929;-86
2023/03/08 07:44:31;;;;;;;;;;;;;;;26.11;18.54;96641.75;5074213;28;19917;-86
2023/03/08 07:46:57;;;;;;;;;;;;;;;24.50;19.60;96638.03;5074125;28;19916;-86
2023/03/08 07:49:23;;;;;;;;;;;;;;;25.69;19.00;96643.91;5074292;28;19917;-87
2023/03/08 07:51:52;;;;;;;;;;;;;;;25.92;18.36;96643.13;5073260;28;20616;-86
2023/03/08 07:54:18;;;;;;;;;;;;;;;25.92;18.18;96637.50;5054015;28;19967;-86
2023/03/08 07:56:44;;;;;;;;;;;;;;;25.40;19.30;96648.13;5069318;28;20327;-86
2023/03/08 07:59:10;;;;;;;;;;;;;;;24.08;19.62;96653.22;5053753;28;20384;-86
2023/03/08 08:01:36;;;;;;;;;;;;;;;23.77;19.80;96650.53;5054163;28;19971;-86
2023/03/08 08:04:03;;;;;;;;;;;;;;;22.59;22.62;96656.50;5049363;28;19917;-86
2023/03/08 08:06:29;;;;;;;;;;;;;;;23.46;21.64;96661.06;5034016;28;19975;-86
2023/03/08 08:08:56;;;;;;;;;;;;;;;22.83;20.62;96658.81;5043856;28;20384;-86
2023/03/08 08:11:22;;;;;;;;;;;;;;;21.33;23.90;96673.03;5053672;28;19921;-86
2023/03/08 08:13:48;;;;;;;;;;;;;;;21.55;21.17;96661.91;5053341;28;19925;-86
2023/03/08 08:16:15;;;;;;;;;;;;;;;24.03;20.38;96663.00;5072550;28;19921;-86
2023/03/08 08:18:41;;;;;;;;;;;;;;;23.40;20.19;96658.13;5053767;28;19952;-86
2023/03/08 08:21:09;;;;;;;;;;;;;;;21.87;22.75;96667.97;5053446;28;19913;-85
2023/03/08 08:23:35;;;;;;;;;;;;;;;19.57;25.49;96673.44;5052674;28;19927;-85
2023/03/08 08:26:09;;;;;;;;;;;;;;;18.39;31.38;96679.38;5053852;28;19962;-85
2023/03/08 08:28:35;;;;;;;;;;;;;;;19.48;26.09;96669.72;5053829;28;19923;-86
2023/03/08 08:31:03;;;;;;;;;;;;;;;18.37;26.94;96664.34;5053501;28;20066;-85
2023/03/08 08:33:30;;;;;;;;;;;;;;;19.57;25.90;96676.22;5053290;28;20331;-85
2023/03/08 08:35:56;;;;;;;;;;;;;;;19.34;25.90;96668.03;5049705;28;20003;-85
2023/03/08 08:38:22;;;;;;;;;;;;;;;19.83;25.64;96652.06;5051056;28;19987;-86
2023/03/08 08:40:48;;;;;;;;;;;;;;;20.58;24.86;96637.56;5053192;28;20454;-85
2023/03/08 08:43:15;;;;;;;;;;;;;;;20.63;22.74;96643.34;5057789;28;20284;-86
2023/03/08 08:45:44;;;;;;;;;;;;;;;20.75;25.10;96649.38;5050996;28;20355;-85
2023/03/08 08:48:11;;;;;;;;;;;;;;;21.01;25.94;96657.28;5053323;28;20269;-85
2023/03/08 08:50:41;;;;;;;;;;;;;;;19.15;26.99;96646.66;5053219;28;19924;-84
2023/03/08 08:53:07;;;;;;;;;;;;;;;19.46;28.13;96650.69;5052981;28;19917;-85
2023/03/08 08:55:33;;;;;;;;;;;;;;;19.44;26.89;96657.91;5051568;28;20024;-85
2023/03/08 08:58:00;;;;;;;;;;;;;;;20.96;25.84;96659.84;5053443;28;20057;-85
2023/03/08 09:00:26;;;;;;;;;;;;;;;21.67;24.21;96647.13;5053227;28;19924;-86
2023/03/08 09:02:52;;;;;;;;;;;;;;;20.52;24.01;96651.25;5046635;28;20373;-85
2023/03/08 09:05:19;;;;;;;;;;;;;;;21.10;21.99;96654.63;5052655;28;19932;-85
2023/03/08 09:07:45;;;;;;;;;;;;;;;20.48;23.66;96652.59;5052826;28;19971;-85
2023/03/08 09:10:11;;;;;;;;;;;;;;;20.18;25.99;96659.41;5053159;28;19972;-85
2023/03/08 09:12:37;;;;;;;;;;;;;;;20.60;25.22;96660.19;5053006;28;19921;-86
2023/03/08 09:15:05;;;;;;;;;;;;;;;21.09;24.36;96658.66;5052811;28;19984;-85
2023/03/08 09:17:32;;;;;;;;;;;;;;;21.74;21.43;96653.25;5053230;28;20003;-85
2023/03/08 09:19:58;;;;;;;;;;;;;;;21.43;24.63;96654.34;5051682;28;19917;-85
2023/03/08 09:22:25;;;;;;;;;;;;;;;22.03;21.04;96658.66;5052791;28;20383;-85
2023/03/08 09:24:51;;;;;;;;;;;;;;;21.59;22.95;96666.13;5053190;28;20071;-85
2023/03/08 09:27:17;;;;;;;;;;;;;;;22.34;20.47;96661.47;5055391;28;20403;-86
2023/03/08 09:29:43;;;;;;;;;;;;;;;22.44;22.54;96649.13;5055963;28;20006;-85
2023/03/08 09:32:09;;;;;;;;;;;;;;;22.38;20.62;96657.31;5056218;28;19971;-86
2023/03/08 09:34:35;;;;;;;;;;;;;;;22.77;21.10;96650.25;5055839;28;19921;-86
2023/03/08 09:37:02;;;;;;;;;;;;;;;22.87;21.13;96659.47;5055100;28;19920;-86
2023/03/08 09:39:28;;;;;;;;;;;;;;;23.13;21.00;96655.97;5056649;28;20003;-86
2023/03/08 09:41:56;;;;;;;;;;;;;;;24.33;18.27;96656.47;5060928;28;20009;-86
2023/03/08 09:44:44;;;;;;;;;;;;;;;23.68;19.11;96644.94;5075181;28;19916;-86
2023/03/08 09:47:29;;;;;;;;;;;;;;;23.03;22.67;96656.44;5076674;28;19920;-85
2023/03/08 09:50:00;;;;;;;;;;;;;;;22.19;20.23;96654.88;5069287;28;19932;-85
2023/03/08 09:52:34;;;;;;;;;;;;;;;21.51;22.79;96662.03;5055549;28;19967;-85
2023/03/08 09:55:01;;;;;;;;;;;;;;;22.11;21.42;96642.38;5055471;28;19920;-86
2023/03/08 09:57:33;;;;;;;;;;;;;;;21.34;24.42;96653.03;5055895;28;19939;-85
2023/03/08 10:00:01;;;;;;;;;;;;;;;21.99;20.97;96644.78;5055226;28;19979;-85
2023/03/08 10:02:37;;;;;;;;;;;;;;;23.10;20.71;96644.94;5055615;28;19925;-86
2023/03/08 10:05:13;;;;;;;;;;;;;;;24.01;20.45;96635.41;5054438;28;19927;-86
2023/03/08 10:07:48;;;;;;;;;;;;;;;23.84;21.91;96630.59;5052969;28;19928;-86
2023/03/08 10:10:35;;;;;;;;;;;;;;;24.25;20.49;96644.00;5056150;28;20284;-86
2023/03/08 10:13:04;;;;;;;;;;;;;;;24.35;20.44;96625.13;5055620;28;19925;-86
2023/03/08 10:15:30;;;;;;;;;;;;;;;24.88;21.94;96622.66;5055847;28;19917;-86
2023/03/08 10:18:00;;;;;;;;;;;;;;;24.02;20.39;96616.56;5053947;28;20363;-86
2023/03/08 10:20:31;;;;;;;;;;;;;;;24.18;21.39;96610.66;5056106;28;20270;-86
2023/03/08 10:23:05;;;;;;;;;;;;;;;26.02;18.68;96614.41;5050209;28;20405;-86
2023/03/08 10:25:32;;;;;;;;;;;;;;;26.03;18.30;96612.38;5055572;28;19917;-87
2023/03/08 10:28:00;;;;;;;;;;;;;;;25.45;18.16;96621.44;5054574;28;19929;-87
2023/03/08 10:30:35;;;;;;;;;;;;;;;24.44;18.54;96613.88;5053727;28;19920;-86
2023/03/08 10:33:05;;;;;;;;;;;;;;;26.04;17.69;96608.34;5055553;28;19924;-87
2023/03/08 10:35:36;;;;;;;;;;;;;;;24.89;20.75;96602.53;5055388;28;19917;-85
2023/03/08 10:38:13;;;;;;;;;;;;;;;24.39;19.83;96615.28;5054382;28;19975;-85
2023/03/08 10:40:39;;;;;;;;;;;;;;;24.18;20.17;96610.66;5055791;28;19939;-86
2023/03/08 10:43:06;;;;;;;;;;;;;;;22.87;23.00;96611.91;5075063;28;19924;-85
2023/03/08 10:45:32;;;;;;;;;;;;;;;23.81;21.02;96614.72;5073753;28;20380;-86
2023/03/08 10:47:59;;;;;;;;;;;;;;;24.21;19.68;96620.16;5055560;28;20011;-86
2023/03/08 10:50:27;;;;;;;;;;;;;;;25.57;18.17;96617.63;5055227;28;19917;-86
2023/03/08 10:52:53;;;;;;;;;;;;;;;23.86;19.44;96606.47;5054975;28;19916;-85
2023/03/08 10:55:21;;;;;;;;;;;;;;;22.46;22.89;96604.69;5052641;28;19975;-85
2023/03/08 10:57:54;;;;;;;;;;;;;;;22.81;21.82;96605.34;5055121;28;19916;-86
2023/03/08 11:00:23;;;;;;;;;;;;;;;24.27;18.60;96607.09;5057667;28;19917;-86
2023/03/08 11:03:00;;;;;;;;;;;;;;;25.48;17.86;96608.47;5035203;28;20391;-86
2023/03/08 11:05:26;;;;;;;;;;;;;;;23.72;21.57;96612.69;5036493;28;19917;-85
2023/03/08 11:07:53;;;;;;;;;;;;;;;24.35;20.04;96611.88;5055163;28;19996;-86
2023/03/08 11:10:22;;;;;;;;;;;;;;;24.77;19.21;96611.94;5054117;28;19925;-86
2023/03/08 11:12:49;;;;;;;;;;;;;;;25.50;18.39;96611.56;5055047;28;20007;-87
2023/03/08 11:15:17;;;;;;;;;;;;;;;25.93;18.29;96610.91;5055104;28;19917;-86
2023/03/08 11:17:52;;;;;;;;;;;;;;;24.18;21.46;96601.50;5053779;28;19928;-86
2023/03/08 11:20:18;;;;;;;;;;;;;;;24.31;21.04;96602.09;5054037;28;19917;-86
2023/03/08 11:23:11;;;;;;;;;;;;;;;25.54;20.18;96598.09;5052731;28;20017;-86
2023/03/08 11:25:40;;;;;;;;;;;;;;;25.53;17.51;96602.19;5053440;28;19928;-86
2023/03/08 11:28:15;;;;;;;;;;;;;;;26.23;17.88;96598.50;5054800;28;19924;-87
2023/03/08 11:31:00;;;;;;;;;;;;;;;26.44;18.73;96605.00;5045266;28;19941;-87
2023/03/08 11:33:38;;;;;;;;;;;;;;;27.42;17.41;96587.38;5054760;28;19916;-87
2023/03/08 11:36:09;;;;;;;;;;;;;;;27.45;17.23;96589.19;5054095;28;19917;-86
2023/03/08 11:38:35;;;;;;;;;;;;;;;26.01;17.23;96587.56;5034408;28;19921;-86
2023/03/08 11:41:10;;;;;;;;;;;;;;;25.61;18.26;96586.50;5048539;28;19916;-86
2023/03/08 11:44:05;;;;;;;;;;;;;;;26.17;17.34;96588.38;5053937;28;19925;-86
2023/03/08 11:46:52;;;;;;;;;;;;;;;25.85;18.74;96581.63;5057784;28;19920;-86
2023/03/08 11:49:18;;;;;;;;;;;;;;;26.19;17.58;96572.56;5052787;28;19917;-87
2023/03/08 11:52:02;;;;;;;;;;;;;;;25.40;18.03;96577.88;5053948;28;19963;-86
2023/03/08 11:54:33;;;;;;;;;;;;;;;26.05;17.97;96568.47;5054272;28;19975;-86
2023/03/08 11:57:01;;;;;;;;;;;;;;;25.80;17.89;96566.19;5052443;28;20388;-86
2023/03/08 11:59:32;;;;;;;;;;;;;;;25.50;18.16;96572.22;5053262;28;20347;-86
2023/03/08 12:02:09;;;;;;;;;;;;;;;26.65;17.25;96573.59;5053123;28;20373;-86
2023/03/08 12:04:54;;;;;;;;;;;;;;;26.43;17.41;96569.66;5053949;28;19917;-86
2023/03/08 12:07:31;;;;;;;;;;;;;;;26.71;16.91;96568.06;5053889;28;20291;-86
2023/03/08 12:10:00;;;;;;;;;;;;;;;26.22;18.91;96565.97;5054014;28;19975;-86
2023/03/08 12:12:29;;;;;;;;;;;;;;;25.34;18.29;96582.59;5046883;28;20303;-86
2023/03/08 12:14:58;;;;;;;;;;;;;;;26.24;17.29;96568.28;5062736;28;19924;-86
2023/03/08 12:17:35;;;;;;;;;;;;;;;26.24;17.89;96562.66;5073809;28;20011;-86
2023/03/08 12:20:05;;;;;;;;;;;;;;;27.31;17.27;96575.88;5069221;28;19917;-86
2023/03/08 12:22:38;;;;;;;;;;;;;;;27.48;16.80;96562.81;5052232;28;19956;-86
2023/03/08 12:25:16;;;;;;;;;;;;;;;28.10;16.45;96548.16;5052449;28;20011;-86
2023/03/08 12:27:48;;;;;;;;;;;;;;;26.98;17.86;96541.63;5056085;28;19956;-86
2023/03/08 12:30:17;;;;;;;;;;;;;;;25.31;18.04;96530.19;5051940;28;20387;-85
2023/03/08 12:32:46;;;;;;;;;;;;;;;24.77;19.88;96526.94;5053677;28;19923;-86
2023/03/08 12:35:21;;;;;;;;;;;;;;;25.97;17.82;96513.88;5051677;28;19955;-86
2023/03/08 12:38:09;;;;;;;;;;;;;;;27.25;17.32;96521.50;5050444;28;19920;-86
2023/03/08 12:40:43;;;;;;;;;;;;;;;27.13;19.27;96519.81;5053512;28;19917;-86
2023/03/08 12:43:17;;;;;;;;;;;;;;;26.79;17.54;96518.56;5053109;28;20032;-86
2023/03/08 12:45:45;;;;;;;;;;;;;;;26.94;18.93;96510.06;5052026;28;19921;-86
2023/03/08 12:48:21;;;;;;;;;;;;;;;26.45;17.48;96499.56;5053317;28;20400;-85
2023/03/08 12:50:55;;;;;;;;;;;;;;;26.02;16.80;96509.59;5053166;28;19916;-86
2023/03/08 12:53:40;;;;;;;;;;;;;;;26.13;16.29;96503.41;5052093;28;19960;-86